createdAt,value
2017-11-20T00:01:15.433Z,4.70
2017-11-20T00:03:43.707Z,3.80
2017-11-20T00:06:11.956Z,4.60
2017-11-20T00:08:39.424Z,4.30
2017-11-20T00:11:06.992Z,4.03
2017-11-20T00:13:34.556Z,4.53
2017-11-20T00:16:02.112Z,4.03
2017-11-20T00:18:29.665Z,4.40
2017-11-20T00:20:57.132Z,3.30
2017-11-20T00:23:24.616Z,6.00
2017-11-20T00:25:52.846Z,3.63
2017-11-20T00:28:20.309Z,3.27
2017-11-20T00:30:47.776Z,4.80
2017-11-20T00:33:15.244Z,4.30
2017-11-20T00:35:42.788Z,3.70
2017-11-20T00:38:10.252Z,4.77
2017-11-20T00:40:37.724Z,4.87
2017-11-20T00:43:05.184Z,4.10
2017-11-20T00:45:33.424Z,3.00
2017-11-20T00:48:00.899Z,3.90
2017-11-20T00:50:28.371Z,3.80
2017-11-20T00:52:56.639Z,4.13
2017-11-20T00:55:24.109Z,3.60
2017-11-20T00:57:51.615Z,3.70
2017-11-20T01:00:19.113Z,4.27
2017-11-20T01:02:46.678Z,4.10
2017-11-20T01:05:14.143Z,4.87
2017-11-20T01:07:41.608Z,3.73
2017-11-20T01:10:09.851Z,4.27
2017-11-20T01:12:37.315Z,3.83
2017-11-20T01:15:04.780Z,3.70
2017-11-20T01:17:32.260Z,5.27
2017-11-20T01:20:00.529Z,5.23
2017-11-20T01:22:28.787Z,6.73
2017-11-20T01:24:56.352Z,4.07
2017-11-20T01:27:24.636Z,4.87
2017-11-20T01:29:52.099Z,4.60
2017-11-20T01:32:19.567Z,4.27
2017-11-20T01:34:47.800Z,4.87
2017-11-20T01:37:15.340Z,4.20
2017-11-20T01:39:42.848Z,3.90
2017-11-20T01:42:10.320Z,4.33
2017-11-20T01:44:38.660Z,4.60
2017-11-20T01:47:06.131Z,4.77
2017-11-20T01:49:33.598Z,3.87
2017-11-20T01:52:01.058Z,4.30
2017-11-20T01:54:28.527Z,4.50
2017-11-20T01:56:56.770Z,4.90
2017-11-20T01:59:24.260Z,5.10
2017-11-20T02:01:52.501Z,4.23
2017-11-20T02:04:20.080Z,3.70
2017-11-20T02:06:47.548Z,3.83
2017-11-20T02:09:15.823Z,5.93
2017-11-20T02:11:43.277Z,3.87
2017-11-20T02:14:10.833Z,3.43
2017-11-20T02:16:38.295Z,4.63
2017-11-20T02:19:06.907Z,4.60
2017-11-20T02:21:35.157Z,4.50
2017-11-20T02:24:02.641Z,5.53
2017-11-20T02:26:30.889Z,4.60
2017-11-20T02:28:58.441Z,4.00
2017-11-20T02:31:25.913Z,5.43
2017-11-20T02:33:53.389Z,3.70
2017-11-20T02:36:21.617Z,5.30
2017-11-20T02:38:49.101Z,4.07
2017-11-20T02:41:16.569Z,5.70
2017-11-20T02:43:44.040Z,3.70
2017-11-20T02:46:12.272Z,4.40
2017-11-20T02:48:39.758Z,4.50
2017-11-20T02:51:07.214Z,3.53
2017-11-20T02:53:34.774Z,3.93
2017-11-20T02:56:02.326Z,4.33
2017-11-20T02:58:29.794Z,5.50
2017-11-20T03:00:57.348Z,3.57
2017-11-20T03:03:24.874Z,3.90
2017-11-20T03:05:52.367Z,4.20
2017-11-20T03:08:19.836Z,3.30
2017-11-20T03:10:47.389Z,3.87
2017-11-20T03:13:14.937Z,4.17
2017-11-20T03:15:42.434Z,5.30
2017-11-20T03:18:10.663Z,4.03
2017-11-20T03:20:38.241Z,4.03
2017-11-20T03:23:05.704Z,3.10
2017-11-20T03:25:33.256Z,4.30
2017-11-20T03:28:00.732Z,4.27
2017-11-20T03:30:28.979Z,5.23
2017-11-20T03:32:56.441Z,5.33
2017-11-20T03:35:23.918Z,4.07
2017-11-20T03:37:51.384Z,3.93
2017-11-20T03:40:19.622Z,5.50
2017-11-20T03:42:47.088Z,4.03
2017-11-20T03:45:14.565Z,4.63
2017-11-20T03:47:42.112Z,4.33
2017-11-20T03:50:10.353Z,4.33
2017-11-20T03:52:37.843Z,4.53
2017-11-20T03:55:05.329Z,4.37
2017-11-20T03:57:33.565Z,4.70
2017-11-20T04:00:01.037Z,4.43
2017-11-20T04:02:28.507Z,4.20
2017-11-20T04:04:55.964Z,3.60
2017-11-20T04:07:23.423Z,3.50
2017-11-20T04:09:50.883Z,3.57
2017-11-20T04:12:18.881Z,4.60
2017-11-20T04:14:47.104Z,3.77
2017-11-20T04:17:14.572Z,3.10
2017-11-20T04:19:42.030Z,5.60
2017-11-20T04:22:09.498Z,4.10
2017-11-20T04:24:36.964Z,4.30
2017-11-20T04:27:04.436Z,3.90
2017-11-20T04:29:32.664Z,3.70
2017-11-20T04:32:00.164Z,3.43
2017-11-20T04:34:28.388Z,3.17
2017-11-20T04:36:55.860Z,3.83
2017-11-20T04:39:23.324Z,3.50
2017-11-20T04:41:50.790Z,3.60
2017-11-20T04:44:18.264Z,3.93
2017-11-20T04:46:45.729Z,3.70
2017-11-20T04:49:13.960Z,4.00
2017-11-20T04:51:41.433Z,3.50
2017-11-20T04:54:08.895Z,3.20
2017-11-20T04:56:36.376Z,3.60
2017-11-20T04:59:04.600Z,2.80
2017-11-20T05:01:32.087Z,3.47
2017-11-20T05:03:59.556Z,3.83
2017-11-20T05:06:27.030Z,4.33
2017-11-20T05:08:55.254Z,3.40
2017-11-20T05:11:22.728Z,3.83
2017-11-20T05:13:50.195Z,3.40
2017-11-20T05:16:17.657Z,3.53
2017-11-20T05:18:45.119Z,3.73
2017-11-20T05:21:12.584Z,3.60
2017-11-20T05:23:40.067Z,3.70
2017-11-20T05:26:07.544Z,3.20
2017-11-20T05:28:35.026Z,3.13
2017-11-20T05:31:02.483Z,3.47
2017-11-20T05:33:29.952Z,4.30
2017-11-20T05:35:57.411Z,3.50
2017-11-20T05:38:24.915Z,3.50
2017-11-20T05:40:53.142Z,3.40
2017-11-20T05:43:20.609Z,3.60
2017-11-20T05:45:49.580Z,4.07
2017-11-20T05:48:17.050Z,3.00
2017-11-20T05:50:44.508Z,2.97
2017-11-20T05:53:12.349Z,3.90
2017-11-20T05:55:39.801Z,3.20
2017-11-20T05:58:07.272Z,3.17
2017-11-20T06:00:34.730Z,2.93
2017-11-20T06:03:02.208Z,3.40
2017-11-20T06:05:29.668Z,2.97
2017-11-20T06:07:57.133Z,4.00
2017-11-20T06:10:24.594Z,3.53
2017-11-20T06:12:52.059Z,2.87
2017-11-20T06:15:19.525Z,2.97
2017-11-20T06:17:47.053Z,3.73
2017-11-20T06:20:14.518Z,3.03
2017-11-20T06:22:41.975Z,3.13
2017-11-20T06:28:02.524Z,3.70
2017-11-20T06:30:30.748Z,3.87
2017-11-20T06:32:58.335Z,4.67
2017-11-20T06:35:25.791Z,5.93
2017-11-20T06:37:53.460Z,4.97
2017-11-20T06:40:20.932Z,3.40
2017-11-20T06:42:49.155Z,4.20
2017-11-20T06:45:16.627Z,3.47
2017-11-20T06:47:44.095Z,3.13
2017-11-20T06:50:11.669Z,2.87
2017-11-20T06:52:39.128Z,3.13
2017-11-20T06:55:06.687Z,3.10
2017-11-20T06:57:34.930Z,3.37
2017-11-20T07:00:02.422Z,3.27
2017-11-20T07:02:29.880Z,3.80
2017-11-20T07:04:57.343Z,4.83
2017-11-20T07:07:24.895Z,4.87
2017-11-20T07:09:52.371Z,4.57
2017-11-20T07:12:19.887Z,5.33
2017-11-20T07:14:47.364Z,4.17
2017-11-20T07:17:14.833Z,5.37
2017-11-20T07:19:42.391Z,5.37
2017-11-20T07:22:09.952Z,4.23
2017-11-20T07:24:37.424Z,4.33
2017-11-20T07:27:04.894Z,4.33
2017-11-20T07:29:45.025Z,2.67
2017-11-20T07:32:12.479Z,2.80
2017-11-20T07:34:51.819Z,2.70
2017-11-20T07:37:31.304Z,2.80
2017-11-20T07:40:10.805Z,3.33
2017-11-20T07:42:38.257Z,2.07
2017-11-20T07:45:05.712Z,2.63
2017-11-20T07:47:33.290Z,3.17
2017-11-20T07:50:01.557Z,2.40
2017-11-20T07:52:29.020Z,2.67
2017-11-20T07:54:56.470Z,2.73
2017-11-20T07:57:23.945Z,2.17
2017-11-20T07:59:51.497Z,2.20
2017-11-20T08:02:19.048Z,1.80
2017-11-20T08:04:46.872Z,2.93
2017-11-20T08:07:14.339Z,2.40
2017-11-20T08:09:41.824Z,2.83
2017-11-20T08:12:09.299Z,2.70
2017-11-20T08:14:36.807Z,3.30
2017-11-20T08:17:04.303Z,3.50
2017-11-20T08:19:31.866Z,4.57
2017-11-20T08:22:00.848Z,3.97
2017-11-20T08:24:28.307Z,5.53
2017-11-20T08:26:55.881Z,6.00
2017-11-20T08:29:23.352Z,6.20
2017-11-20T08:31:50.816Z,6.97
2017-11-20T08:34:19.051Z,6.03
2017-11-20T08:36:46.527Z,6.90
2017-11-20T08:39:13.990Z,7.60
2017-11-20T08:41:41.539Z,9.10
2017-11-20T08:44:09.020Z,8.93
2017-11-20T08:46:37.281Z,8.17
2017-11-20T08:49:04.747Z,9.87
2017-11-20T08:51:32.303Z,10.57
2017-11-20T08:53:59.788Z,10.90
2017-11-20T08:56:28.018Z,11.53
2017-11-20T08:58:55.511Z,12.87
2017-11-20T09:01:23.735Z,13.83
2017-11-20T09:03:51.208Z,15.70
2017-11-20T09:06:18.671Z,14.90
2017-11-20T09:08:46.244Z,15.00
2017-11-20T09:11:13.708Z,16.37
2017-11-20T09:13:41.176Z,16.00
2017-11-20T09:16:09.436Z,16.47
2017-11-20T09:18:36.924Z,17.43
2017-11-20T09:21:05.176Z,19.23
2017-11-20T09:23:32.660Z,19.60
2017-11-20T09:26:00.902Z,16.50
2017-11-20T09:28:29.152Z,17.50
2017-11-20T09:30:56.622Z,17.17
2017-11-20T09:33:24.108Z,18.07
2017-11-20T09:35:51.580Z,18.63
2017-11-20T09:38:19.826Z,16.03
2017-11-20T09:40:47.312Z,17.90
2017-11-20T09:43:15.553Z,20.07
2017-11-20T09:45:43.127Z,18.43
2017-11-20T09:48:10.611Z,19.30
2017-11-20T09:50:38.871Z,18.73
2017-11-20T09:53:06.436Z,13.97
2017-11-20T09:55:33.894Z,13.37
2017-11-20T09:58:01.368Z,13.53
2017-11-20T10:00:29.599Z,12.83
2017-11-20T10:02:57.103Z,11.00
2017-11-20T10:05:25.344Z,11.70
2017-11-20T10:07:52.808Z,11.00
2017-11-20T10:10:20.288Z,10.53
2017-11-20T10:12:48.524Z,8.47
2017-11-20T10:15:15.996Z,7.30
2017-11-20T10:17:43.460Z,8.30
2017-11-20T10:20:10.936Z,7.63
2017-11-20T10:22:39.212Z,6.77
2017-11-20T10:25:07.481Z,7.10
2017-11-20T10:27:34.962Z,7.67
2017-11-20T10:30:03.197Z,7.00
2017-11-20T10:32:30.657Z,8.87
2017-11-20T10:34:58.132Z,10.10
2017-11-20T10:37:25.586Z,9.63
2017-11-20T10:39:53.062Z,11.77
2017-11-20T10:42:21.306Z,10.77
2017-11-20T10:44:48.776Z,11.27
2017-11-20T10:47:16.244Z,10.10
2017-11-20T10:49:44.498Z,10.50
2017-11-20T10:52:11.964Z,10.20
2017-11-20T10:54:39.465Z,11.57
2017-11-20T10:57:06.944Z,12.30
2017-11-20T10:59:34.424Z,11.60
2017-11-20T11:02:01.889Z,11.87
2017-11-20T11:04:29.376Z,12.27
2017-11-20T11:06:57.612Z,12.17
2017-11-20T11:09:25.107Z,13.47
2017-11-20T11:11:53.343Z,12.27
2017-11-20T11:14:20.816Z,12.27
2017-11-20T11:16:48.277Z,12.67
2017-11-20T11:19:16.653Z,11.17
2017-11-20T11:21:45.107Z,12.10
2017-11-20T11:24:12.573Z,9.80
2017-11-20T11:26:40.043Z,11.00
2017-11-20T11:29:07.508Z,9.53
2017-11-20T11:31:34.983Z,10.10
2017-11-20T11:34:02.446Z,9.97
2017-11-20T11:36:29.918Z,10.37
2017-11-20T11:38:58.154Z,10.17
2017-11-20T11:41:25.632Z,11.50
2017-11-20T11:43:53.880Z,10.90
2017-11-20T11:46:21.375Z,11.33
2017-11-20T11:48:48.835Z,10.47
2017-11-20T11:51:17.132Z,10.33
2017-11-20T11:53:44.601Z,9.83
2017-11-20T11:56:12.084Z,10.50
2017-11-20T11:58:39.560Z,9.80
2017-11-20T12:01:07.024Z,9.93
2017-11-20T12:03:34.488Z,9.00
2017-11-20T12:06:01.971Z,11.30
2017-11-20T12:08:30.204Z,8.90
2017-11-20T12:10:57.668Z,9.00
2017-11-20T12:13:25.157Z,8.50
2017-11-20T12:15:52.619Z,7.73
2017-11-20T12:18:20.856Z,7.30
2017-11-20T12:20:48.334Z,7.30
2017-11-20T12:23:15.796Z,6.70
2017-11-20T12:25:43.268Z,6.00
2017-11-20T12:28:11.497Z,5.30
2017-11-20T12:30:38.968Z,6.50
2017-11-20T12:33:06.422Z,6.73
2017-11-20T12:35:33.887Z,5.33
2017-11-20T12:38:01.352Z,5.90
2017-11-20T12:40:28.816Z,5.33
2017-11-20T12:42:56.307Z,4.50
2017-11-20T12:45:25.091Z,5.13
2017-11-20T12:47:53.326Z,5.73
2017-11-20T12:50:20.780Z,4.30
2017-11-20T12:52:48.661Z,4.57
2017-11-20T12:55:16.136Z,4.97
2017-11-20T12:57:44.380Z,5.40
2017-11-20T13:00:11.840Z,4.20
2017-11-20T13:02:39.308Z,4.67
2017-11-20T13:05:06.785Z,4.30
2017-11-20T13:07:35.036Z,4.23
2017-11-20T13:10:02.496Z,4.43
2017-11-20T13:12:29.972Z,4.67
2017-11-20T13:14:57.440Z,3.40
2017-11-20T13:17:25.667Z,4.40
2017-11-20T13:19:53.123Z,3.97
2017-11-20T13:22:20.596Z,3.70
2017-11-20T13:24:48.056Z,3.67
2017-11-20T13:27:15.532Z,3.50
2017-11-20T13:29:43.036Z,3.63
2017-11-20T13:32:10.507Z,3.67
2017-11-20T13:34:37.969Z,3.10
2017-11-20T13:37:05.436Z,3.13
2017-11-20T13:39:32.907Z,2.90
2017-11-20T13:42:00.375Z,2.60
2017-11-20T13:44:27.843Z,2.97
2017-11-20T13:46:55.306Z,2.70
2017-11-20T13:49:22.811Z,2.93
2017-11-20T13:51:50.280Z,3.00
2017-11-20T13:54:17.753Z,3.10
2017-11-20T13:56:45.214Z,3.00
2017-11-20T13:59:12.672Z,2.37
2017-11-20T14:01:40.928Z,3.13
2017-11-20T14:04:08.395Z,2.50
2017-11-20T14:06:42.805Z,2.93
2017-11-20T14:09:10.269Z,2.93
2017-11-20T14:11:37.757Z,2.63
2017-11-20T14:14:05.479Z,2.67
2017-11-20T14:16:32.989Z,2.43
2017-11-20T14:19:00.471Z,2.40
2017-11-20T14:21:28.687Z,2.63
2017-11-20T14:23:56.172Z,2.07
2017-11-20T14:26:23.639Z,2.70
2017-11-20T14:28:51.116Z,2.30
2017-11-20T14:31:19.339Z,2.67
2017-11-20T14:33:46.817Z,2.00
2017-11-20T14:36:14.283Z,2.27
2017-11-20T14:38:41.792Z,2.57
2017-11-20T14:41:09.235Z,2.50
2017-11-20T14:43:36.725Z,2.40
2017-11-20T14:46:04.181Z,1.83
2017-11-20T14:48:36.298Z,2.17
2017-11-20T14:51:05.936Z,2.00
2017-11-20T14:53:34.192Z,1.83
2017-11-20T14:56:02.419Z,2.33
2017-11-20T14:58:36.388Z,2.67
2017-11-20T15:01:03.844Z,2.53
2017-11-20T15:03:32.072Z,2.37
2017-11-20T15:05:59.539Z,2.47
2017-11-20T15:08:26.997Z,3.17
2017-11-20T15:10:54.471Z,3.07
2017-11-20T15:13:21.928Z,2.63
2017-11-20T15:15:49.397Z,3.63
2017-11-20T15:18:16.861Z,3.60
2017-11-20T15:20:45.093Z,2.70
2017-11-20T15:23:12.560Z,3.13
2017-11-20T15:25:40.029Z,3.00
2017-11-20T15:28:07.492Z,3.40
2017-11-20T15:30:34.963Z,3.70
2017-11-20T15:33:03.192Z,3.30
2017-11-20T15:35:31.435Z,3.47
2017-11-20T15:37:58.896Z,3.43
2017-11-20T15:40:26.386Z,3.60
2017-11-20T15:42:53.849Z,3.60
2017-11-20T15:45:21.311Z,2.60
2017-11-20T15:47:48.779Z,3.13
2017-11-20T15:50:16.251Z,1.60
2017-11-20T15:52:43.721Z,2.00
2017-11-20T15:55:11.956Z,1.70
2017-11-20T15:57:39.424Z,1.90
2017-11-20T16:00:06.992Z,1.70
2017-11-20T16:02:34.456Z,1.93
2017-11-20T16:05:01.934Z,2.00
2017-11-20T16:07:30.156Z,2.20
2017-11-20T16:09:57.630Z,1.70
2017-11-20T16:12:25.100Z,2.00
2017-11-20T16:14:52.571Z,1.97
2017-11-20T16:17:20.070Z,1.40
2017-11-20T16:19:47.541Z,1.57
2017-11-20T16:22:14.995Z,1.27
2017-11-20T16:24:42.473Z,1.20
2017-11-20T16:27:09.940Z,0.90
2017-11-20T16:29:37.412Z,1.50
2017-11-20T16:32:04.879Z,1.30
2017-11-20T16:34:32.371Z,1.53
2017-11-20T16:36:59.827Z,1.70
2017-11-20T16:39:27.320Z,1.50
2017-11-20T16:41:54.821Z,1.07
2017-11-20T16:44:22.276Z,1.27
2017-11-20T16:46:50.495Z,1.80
2017-11-20T16:49:17.959Z,1.33
2017-11-20T16:51:45.411Z,1.30
2017-11-20T16:54:12.897Z,1.40
2017-11-20T16:56:40.369Z,1.53
2017-11-20T16:59:08.738Z,1.30
2017-11-20T17:01:48.185Z,1.50
2017-11-20T17:04:15.638Z,1.20
2017-11-20T17:06:43.125Z,1.40
2017-11-20T17:09:11.349Z,1.00
2017-11-20T17:11:38.811Z,1.27
2017-11-20T17:14:07.181Z,1.07
2017-11-20T17:16:34.648Z,0.93
2017-11-20T17:19:02.110Z,0.87
2017-11-20T17:21:29.582Z,1.30
2017-11-20T17:23:57.032Z,0.97
2017-11-20T17:26:24.504Z,1.03
2017-11-20T17:28:51.961Z,0.90
2017-11-20T17:31:19.435Z,1.27
2017-11-20T17:33:47.669Z,1.07
2017-11-20T17:36:15.139Z,1.43
2017-11-20T17:38:42.592Z,1.30
2017-11-20T17:41:10.061Z,0.90
2017-11-20T17:43:38.294Z,1.50
2017-11-20T17:46:05.768Z,1.40
2017-11-20T17:48:33.227Z,1.10
2017-11-20T17:51:00.687Z,1.10
2017-11-20T17:53:28.152Z,0.80
2017-11-20T17:55:55.620Z,0.83
2017-11-20T17:58:24.000Z,0.80
2017-11-20T18:00:51.499Z,0.60
2017-11-20T18:03:19.720Z,1.10
2017-11-20T18:05:47.192Z,0.80
2017-11-20T18:08:14.664Z,0.70
2017-11-20T18:10:42.139Z,0.80
2017-11-20T18:13:10.366Z,0.63
2017-11-20T18:15:37.852Z,0.50
2017-11-20T18:18:05.315Z,0.67
2017-11-20T18:20:32.775Z,0.70
2017-11-20T18:23:00.240Z,1.40
2017-11-20T18:25:27.707Z,1.20
2017-11-20T18:27:55.925Z,1.17
2017-11-20T18:30:23.391Z,1.57
2017-11-20T18:32:50.893Z,1.10
2017-11-20T18:35:18.382Z,0.83
2017-11-20T18:37:45.832Z,1.10
2017-11-20T18:40:13.361Z,1.17
2017-11-20T18:42:40.821Z,0.80
2017-11-20T18:45:09.059Z,0.60
2017-11-20T18:47:36.532Z,0.67
2017-11-20T18:50:04.011Z,0.87
2017-11-20T18:52:31.473Z,0.70
2017-11-20T18:54:58.939Z,0.70
2017-11-20T18:57:27.164Z,0.87
2017-11-20T19:00:06.640Z,0.87
2017-11-20T19:02:45.887Z,0.60
2017-11-20T19:05:26.125Z,0.80
2017-11-20T19:08:05.448Z,0.80
2017-11-20T19:10:32.925Z,0.80
2017-11-20T19:13:00.380Z,1.33
2017-11-20T19:15:27.943Z,1.00
2017-11-20T19:17:55.419Z,1.10
2017-11-20T19:20:23.656Z,0.70
2017-11-20T19:22:51.139Z,0.80
2017-11-20T19:25:18.691Z,0.80
2017-11-20T19:27:46.187Z,0.90
2017-11-20T19:30:14.431Z,0.80
2017-11-20T19:32:41.891Z,0.60
2017-11-20T19:35:09.348Z,0.50
2017-11-20T19:37:36.885Z,0.60
2017-11-20T19:40:04.364Z,0.50
2017-11-20T19:42:31.832Z,0.60
2017-11-20T19:44:59.284Z,0.60
2017-11-20T19:47:26.761Z,0.60
2017-11-20T19:49:54.996Z,0.50
2017-11-20T19:52:22.471Z,0.40
2017-11-20T19:54:49.968Z,0.60
2017-11-20T19:57:17.435Z,0.40
2017-11-20T19:59:44.896Z,0.70
2017-11-20T20:02:12.381Z,0.60
2017-11-20T20:04:39.832Z,0.70
2017-11-20T20:07:07.293Z,0.50
2017-11-20T20:09:34.763Z,0.40
2017-11-20T20:12:02.231Z,0.50
2017-11-20T20:14:30.452Z,0.50
2017-11-20T20:17:09.919Z,0.53
2017-11-20T20:19:37.382Z,0.70
2017-11-20T20:22:04.988Z,0.60
2017-11-20T20:24:33.234Z,0.50
2017-11-20T20:27:00.705Z,0.60
2017-11-20T20:29:28.171Z,0.80
2017-11-20T20:31:55.640Z,0.50
2017-11-20T20:34:23.082Z,0.60
2017-11-20T20:36:50.558Z,0.80
2017-11-20T20:39:18.778Z,0.80
2017-11-20T20:41:46.267Z,0.50
2017-11-20T20:44:13.723Z,0.60
2017-11-20T20:46:41.213Z,0.60
2017-11-20T20:49:09.457Z,0.77
2017-11-20T20:51:36.915Z,0.70
2017-11-20T20:54:04.392Z,0.80
2017-11-20T20:56:31.849Z,0.93
2017-11-20T20:58:59.319Z,0.70
2017-11-20T21:01:27.588Z,1.10
2017-11-20T21:03:55.819Z,0.80
2017-11-20T21:06:23.279Z,0.90
2017-11-20T21:08:50.753Z,1.10
2017-11-20T21:11:23.820Z,0.73
2017-11-20T21:13:51.307Z,0.50
2017-11-20T21:16:18.759Z,0.90
2017-11-20T21:18:46.232Z,0.83
2017-11-20T21:21:14.482Z,1.10
2017-11-20T21:23:42.728Z,0.90
2017-11-20T21:26:10.184Z,0.97
2017-11-20T21:28:37.650Z,0.93
2017-11-20T21:31:05.104Z,1.13
2017-11-20T21:33:32.575Z,0.90
2017-11-20T21:36:00.035Z,1.00
2017-11-20T21:38:27.507Z,1.00
2017-11-20T21:40:55.750Z,1.60
2017-11-20T21:43:23.216Z,1.00
2017-11-20T21:45:50.670Z,0.97
2017-11-20T21:48:18.142Z,1.30
2017-11-20T21:50:45.609Z,0.80
2017-11-20T21:53:13.087Z,0.90
2017-11-20T21:55:40.538Z,0.93
2017-11-20T21:58:07.995Z,1.00
2017-11-20T22:00:35.468Z,0.90
2017-11-20T22:03:02.941Z,1.27
2017-11-20T22:05:30.410Z,1.10
2017-11-20T22:07:58.643Z,1.80
2017-11-20T22:10:26.103Z,1.40
2017-11-20T22:13:05.479Z,1.30
2017-11-20T22:15:33.714Z,0.97
2017-11-20T22:18:01.179Z,1.00
2017-11-20T22:20:28.647Z,0.90
2017-11-20T22:22:56.105Z,1.10
2017-11-20T22:25:23.575Z,0.90
2017-11-20T22:27:51.035Z,1.10
2017-11-20T22:30:18.512Z,0.97
2017-11-20T22:32:46.728Z,1.37
2017-11-20T22:35:14.209Z,0.87
2017-11-20T22:37:41.663Z,1.03
2017-11-20T22:40:09.897Z,1.10
2017-11-20T22:42:37.352Z,1.53
2017-11-20T22:45:04.825Z,1.10
2017-11-20T22:47:32.283Z,0.83
2017-11-20T22:49:59.752Z,0.90
2017-11-20T22:52:27.215Z,1.00
2017-11-20T22:54:54.683Z,0.90
2017-11-20T22:57:22.144Z,0.80
2017-11-20T22:59:49.620Z,0.97
2017-11-20T23:02:17.076Z,0.83
2017-11-20T23:04:44.551Z,0.90
2017-11-20T23:07:12.013Z,1.13
2017-11-20T23:09:40.530Z,1.03
2017-11-20T23:12:08.001Z,1.00
2017-11-20T23:14:35.459Z,1.00
2017-11-20T23:17:02.930Z,1.00
2017-11-20T23:19:31.155Z,0.93
2017-11-20T23:21:59.386Z,0.90
2017-11-20T23:24:26.889Z,1.10
2017-11-20T23:26:54.339Z,0.97
2017-11-20T23:29:22.853Z,1.00
2017-11-20T23:31:50.320Z,0.70
2017-11-20T23:34:17.788Z,0.80
2017-11-20T23:36:45.244Z,0.87
2017-11-20T23:39:12.704Z,0.77
2017-11-20T23:41:40.173Z,1.00
2017-11-20T23:44:07.632Z,0.77
2017-11-20T23:46:35.103Z,1.00
2017-11-20T23:49:02.563Z,1.03
2017-11-20T23:51:30.034Z,1.23
2017-11-20T23:53:57.496Z,1.10
2017-11-20T23:56:24.955Z,1.23
2017-11-20T23:58:53.188Z,1.10
